Map

Track Data

SID SEASON NUMBER BASIN SUBBASIN NAME ISO_TIME NATURE LAT LON WMO_WIND WMO_PRES WMO_AGENCY TRACK_TYPE DIST2LAND LANDFALL IFLAG USA_AGENCY USA_ATCF_ID USA_LAT USA_LON USA_RECORD USA_STATUS USA_WIND USA_PRES USA_SSHS USA_R34_NE USA_R34_SE USA_R34_SW USA_R34_NW USA_R50_NE USA_R50_SE USA_R50_SW USA_R50_NW USA_R64_NE USA_R64_SE USA_R64_SW USA_R64_NW USA_POCI USA_ROCI USA_RMW USA_EYE TOKYO_LAT TOKYO_LON TOKYO_GRADE TOKYO_WIND TOKYO_PRES TOKYO_R50_DIR TOKYO_R50_LONG TOKYO_R50_SHORT TOKYO_R30_DIR TOKYO_R30_LONG TOKYO_R30_SHORT TOKYO_LAND CMA_LAT CMA_LON CMA_CAT CMA_WIND CMA_PRES HKO_LAT HKO_LON HKO_CAT HKO_WIND HKO_PRES NEWDELHI_LAT NEWDELHI_LON NEWDELHI_GRADE NEWDELHI_WIND NEWDELHI_PRES NEWDELHI_CI NEWDELHI_DP NEWDELHI_POCI REUNION_LAT REUNION_LON REUNION_TYPE REUNION_WIND REUNION_PRES REUNION_TNUM REUNION_CI REUNION_RMW REUNION_R34_NE REUNION_R34_SE REUNION_R34_SW REUNION_R34_NW REUNION_R50_NE REUNION_R50_SE REUNION_R50_SW REUNION_R50_NW REUNION_R64_NE REUNION_R64_SE REUNION_R64_SW REUNION_R64_NW BOM_LAT BOM_LON BOM_TYPE BOM_WIND BOM_PRES BOM_TNUM BOM_CI BOM_RMW BOM_R34_NE BOM_R34_SE BOM_R34_SW BOM_R34_NW BOM_R50_NE BOM_R50_SE BOM_R50_SW BOM_R50_NW BOM_R64_NE BOM_R64_SE BOM_R64_SW BOM_R64_NW BOM_ROCI BOM_POCI BOM_EYE BOM_POS_METHOD BOM_PRES_METHOD NADI_LAT NADI_LON NADI_CAT NADI_WIND NADI_PRES WELLINGTON_LAT WELLINGTON_LON WELLINGTON_WIND WELLINGTON_PRES DS824_LAT DS824_LON DS824_STAGE DS824_WIND DS824_PRES TD9636_LAT TD9636_LON TD9636_STAGE TD9636_WIND TD9636_PRES TD9635_LAT TD9635_LON TD9635_WIND TD9635_PRES TD9635_ROCI NEUMANN_LAT NEUMANN_LON NEUMANN_CLASS NEUMANN_WIND NEUMANN_PRES MLC_LAT MLC_LON MLC_CLASS MLC_WIND MLC_PRES USA_GUST BOM_GUST BOM_GUST_PER REUNION_GUST REUNION_GUST_PER USA_SEAHGT USA_SEARAD_NE USA_SEARAD_SE USA_SEARAD_SW USA_SEARAD_NW STORM_SPEED STORM_DIR
1991223N19162 1991 50 WP MM NOT_NAMED 1991-08-11 06:00:00 NR 19.0000 162.000 main 2717 2707 O_____________ jtwc_wp WP131991 19.0000 162.000 20 -1 14 306
1991223N19162 1991 50 WP MM NOT_NAMED 1991-08-11 09:00:00 NR 19.4103 161.413 main 2707 2631 P_____________ WP131991 19.4103 161.413 20 -1 14 305
1991223N19162 1991 50 WP MM NOT_NAMED 1991-08-11 12:00:00 NR 19.8000 160.800 main 2631 2563 O_____________ jtwc_wp WP131991 19.8000 160.800 20 -1 14 302
1991223N19162 1991 50 WP MM NOT_NAMED 1991-08-11 15:00:00 NR 20.1574 160.150 main 2548 2481 P_____________ WP131991 20.1574 160.150 20 -1 14 300
1991223N19162 1991 50 WP MM NOT_NAMED 1991-08-11 18:00:00 NR 20.5000 159.500 main 2481 2414 O_____________ jtwc_wp WP131991 20.5000 159.500 20 -1 14 300
1991223N19162 1991 50 WP MM NOT_NAMED 1991-08-11 21:00:00 NR 20.8422 158.892 main 2414 2339 P_____________ WP131991 20.8422 158.892 20 -1 13 302
1991223N19162 1991 50 WP MM NOT_NAMED 1991-08-12 00:00:00 NR 21.2000 158.300 main 2339 2264 O_____________ jtwc_wp WP131991 21.2000 158.300 20 -1 13 304
1991223N19162 1991 50 WP MM NOT_NAMED 1991-08-12 03:00:00 NR 21.5847 157.707 main 2264 2189 P_____________ WP131991 21.5847 157.707 22 -1 14 306
1991223N19162 1991 50 WP MM NOT_NAMED 1991-08-12 06:00:00 NR 22.0000 157.100 main 2189 2114 O_____________ jtwc_wp WP131991 22.0000 157.100 25 -1 14 306
1991223N19162 1991 50 WP MM NOT_NAMED 1991-08-12 09:00:00 NR 22.4196 156.472 main 2114 2024 P_____________ WP131991 22.4196 156.472 25 -1 15 307
1991223N19162 1991 50 WP MM NOT_NAMED 1991-08-12 12:00:00 NR 22.9000 155.800 main 2024 1935 O_____________ jtwc_wp WP131991 22.9000 155.800 25 -1 17 309
1991223N19162 1991 50 WP MM NOT_NAMED 1991-08-12 15:00:00 NR 23.4623 155.072 main 1926 1822 P_____________ WP131991 23.4623 155.072 25 -1 18 311
1991223N19162 1991 50 WP MM NOT_NAMED 1991-08-12 18:00:00 NR 24.1000 154.300 main 1822 1724 O_____________ jtwc_wp WP131991 24.1000 154.300 25 -1 19 313
1991223N19162 1991 50 WP MM NOT_NAMED 1991-08-12 21:00:00 NR 24.7618 153.529 main 1709 1597 P_____________ WP131991 24.7618 153.529 25 -1 20 314
1991223N19162 1991 50 WP MM NOT_NAMED 1991-08-13 00:00:00 NR 25.5000 152.700 main 1597 1477 O_____________ jtwc_wp WP131991 25.5000 152.700 25 -1 22 316
1991223N19162 1991 50 WP MM NOT_NAMED 1991-08-13 03:00:00 NR 26.3563 151.817 main 1462 1336 P_____________ WP131991 26.3563 151.817 25 -1 24 315
1991223N19162 1991 50 WP MM NOT_NAMED 1991-08-13 06:00:00 NR 27.2000 150.800 main 1329 1197 O_____________ jtwc_wp WP131991 27.2000 150.800 25 -1 25 309
1991223N19162 1991 50 WP MM NOT_NAMED 1991-08-13 09:00:00 NR 27.9245 149.610 main 1190 1061 P_____________ WP131991 27.9245 149.610 25 -1 26 300
1991223N19162 1991 50 WP MM NOT_NAMED 1991-08-13 12:00:00 NR 28.5000 148.300 main 1054 937 O_____________ jtwc_wp WP131991 28.5000 148.300 25 -1 25 293
1991223N19162 1991 50 WP MM NOT_NAMED 1991-08-13 15:00:00 NR 28.9024 146.956 main 937 833 P_____________ WP131991 28.9024 146.956 25 -1 25 286
1991223N19162 1991 50 WP MM NOT_NAMED 1991-08-13 18:00:00 NR 29.2000 145.600 main 828 O_____________ jtwc_wp WP131991 29.2000 145.600 25 -1 24 284

Digital Typhoon Data and Search

About IBTrACS Database

This database is a web-friendly format of International Best Track Archive for Climate Stewardship (IBTrACS), a global best track data archive curated by NOAA dating back to 1842.

Updated: 2021-10-27